Palo Alto, CA

5:43 AM PST on December 11, 2016 (GMT -0800)
Palo Alto Of Santa Clara County | | Change Station

Elev 7 ft 37.46 °N, 122.12 °W | Updated 8 hours ago

Partly Cloudy
Partly Cloudy
57 °F
Feels Like 57 °F
N
8
Wind Variable Wind from WNW

Today
High -- | Low -- °F
--% Chance of Precip.
Yesterday
High -- | Low -- °F
Precip. -- in
Pressure 30.12 in
Visibility 10.0 miles
Clouds Few 2000 ft
Mostly Cloudy 12000 ft
Dew Point 55 °F
Humidity 94%
Rainfall 0.00 in
Snow Depth Not available.
7:13 AM 4:50 PM
Waxing Gibbous, 91% visible
SPECI KPAO 110447Z 29007KT 10SM FEW020 BKN120 14/13 A3012 RMK LAST
Pressure 30.12 in
Visibility 10.0 miles
Clouds Few 2000 ft
Mostly Cloudy 12000 ft
Dew Point 55 °F
Humidity 94%
Rainfall 0.00 in
Snow Depth Not available.
7:13 AM 4:50 PM
Waxing Gibbous, 91% visible
SPECI KPAO 110447Z 29007KT 10SM FEW020 BKN120 14/13 A3012 RMK LAST

10-Day Weather Forecast

Almanac

Astronomy

Dec. 11, 2016 Rise Set
Actual Time
Civil Twilight
Nautical Twilight
Astronomical Twilight
Moon
Length of Visible Light
Length of Day
Tomorrow will be .
, % of the Moon is Illuminated

Today's Extremes

State Highs State Lows

Community

WunderPhotos

Upload Photos

1,956,708 photos uploaded!

WunderBlog® & News

Nearby

Air Quality

  Air Quality AQ Index Pollutant
Not available.

Snow Depth

Station Depth Elevation

Earthquake Activity

City Distance Mag. Time & Date
Minimum magnitude displayed is 2.5.

Coastal Water Temperatures

Place Temperature

Stations

Nearby Weather Stations

Station Location Temp. Windchill Dew Point Humidity Wind Precip. Elev Updated Type
                   

Watches & Warnings

There are currently no watches in effect.